sensor_id;sensor_type;location;lat;lon;timestamp;pressure;altitude;pressure_sealevel;temperature;humidity
9764;BME280;4921;43.214;27.936;2023-06-14T00:02:00;100589.00;;;21.00;100.00
9764;BME280;4921;43.214;27.936;2023-06-14T00:04:27;100589.81;;;21.00;100.00
9764;BME280;4921;43.214;27.936;2023-06-14T00:06:55;100594.50;;;20.98;100.00
9764;BME280;4921;43.214;27.936;2023-06-14T00:09:23;100594.72;;;20.97;100.00
9764;BME280;4921;43.214;27.936;2023-06-14T00:11:50;100594.91;;;20.95;100.00
9764;BME280;4921;43.214;27.936;2023-06-14T00:14:17;100592.22;;;20.95;100.00
9764;BME280;4921;43.214;27.936;2023-06-14T00:16:45;100595.09;;;20.94;100.00
9764;BME280;4921;43.214;27.936;2023-06-14T00:19:13;100596.31;;;20.91;100.00
9764;BME280;4921;43.214;27.936;2023-06-14T00:21:41;100596.47;;;20.90;100.00
9764;BME280;4921;43.214;27.936;2023-06-14T00:24:08;100599.34;;;20.88;100.00
9764;BME280;4921;43.214;27.936;2023-06-14T00:26:35;100598.16;;;20.91;100.00
9764;BME280;4921;43.214;27.936;2023-06-14T00:29:02;100593.63;;;20.91;100.00
9764;BME280;4921;43.214;27.936;2023-06-14T00:31:29;100595.28;;;20.92;100.00
9764;BME280;4921;43.214;27.936;2023-06-14T00:33:58;100593.25;;;20.94;100.00
9764;BME280;4921;43.214;27.936;2023-06-14T00:36:25;100588.72;;;20.95;100.00
9764;BME280;4921;43.214;27.936;2023-06-14T00:38:52;100593.88;;;20.96;100.00
9764;BME280;4921;43.214;27.936;2023-06-14T00:41:19;100601.91;;;20.96;100.00
9764;BME280;4921;43.214;27.936;2023-06-14T00:43:47;100603.94;;;20.94;100.00
9764;BME280;4921;43.214;27.936;2023-06-14T00:46:14;100598.59;;;20.94;100.00
9764;BME280;4921;43.214;27.936;2023-06-14T00:48:42;100600.88;;;20.97;100.00
9764;BME280;4921;43.214;27.936;2023-06-14T00:51:10;100610.56;;;20.98;100.00
9764;BME280;4921;43.214;27.936;2023-06-14T00:53:37;100608.91;;;20.97;100.00
9764;BME280;4921;43.214;27.936;2023-06-14T00:56:05;100609.75;;;20.98;100.00
9764;BME280;4921;43.214;27.936;2023-06-14T00:58:32;100615.72;;;21.00;100.00
9764;BME280;4921;43.214;27.936;2023-06-14T01:00:59;100608.34;;;21.02;100.00
9764;BME280;4921;43.214;27.936;2023-06-14T01:03:28;100613.31;;;21.05;100.00
9764;BME280;4921;43.214;27.936;2023-06-14T01:05:59;100611.28;;;21.07;100.00
9764;BME280;4921;43.214;27.936;2023-06-14T01:08:40;100614.16;;;21.05;100.00
9764;BME280;4921;43.214;27.936;2023-06-14T01:11:16;100614.16;;;21.05;100.00
9764;BME280;4921;43.214;27.936;2023-06-14T01:13:46;100608.34;;;21.02;100.00
9764;BME280;4921;43.214;27.936;2023-06-14T01:16:14;100606.88;;;20.99;100.00
9764;BME280;4921;43.214;27.936;2023-06-14T01:18:41;100588.97;;;20.79;100.00
9764;BME280;4921;43.214;27.936;2023-06-14T01:21:20;100605.59;;;20.95;100.00
9764;BME280;4921;43.214;27.936;2023-06-14T01:23:49;100588.38;;;20.83;100.00
9764;BME280;4921;43.214;27.936;2023-06-14T01:26:19;100608.00;;;20.90;100.00
9764;BME280;4921;43.214;27.936;2023-06-14T01:28:47;100613.75;;;20.87;100.00
9764;BME280;4921;43.214;27.936;2023-06-14T01:31:18;100594.97;;;20.81;100.00
9764;BME280;4921;43.214;27.936;2023-06-14T01:33:48;100595.88;;;20.73;100.00
9764;BME280;4921;43.214;27.936;2023-06-14T01:36:16;100598.34;;;20.75;100.00
9764;BME280;4921;43.214;27.936;2023-06-14T01:38:44;100592.13;;;20.68;100.00
9764;BME280;4921;43.214;27.936;2023-06-14T01:41:15;100595.69;;;20.75;100.00
9764;BME280;4921;43.214;27.936;2023-06-14T01:43:42;100594.25;;;20.72;100.00
9764;BME280;4921;43.214;27.936;2023-06-14T01:46:10;100595.81;;;20.67;100.00
9764;BME280;4921;43.214;27.936;2023-06-14T01:48:38;100598.22;;;20.62;100.00
9764;BME280;4921;43.214;27.936;2023-06-14T01:51:05;100595.72;;;20.60;100.00
9764;BME280;4921;43.214;27.936;2023-06-14T01:53:32;100599.44;;;20.59;100.00
9764;BME280;4921;43.214;27.936;2023-06-14T01:55:59;100602.09;;;20.59;100.00
9764;BME280;4921;43.214;27.936;2023-06-14T01:58:28;100602.34;;;20.64;100.00
9764;BME280;4921;43.214;27.936;2023-06-14T02:00:55;100601.91;;;20.61;100.00
9764;BME280;4921;43.214;27.936;2023-06-14T02:03:22;100607.25;;;20.61;100.00
9764;BME280;4921;43.214;27.936;2023-06-14T02:05:50;100611.94;;;20.59;100.00
9764;BME280;4921;43.214;27.936;2023-06-14T02:08:17;100603.22;;;20.50;100.00
9764;BME280;4921;43.214;27.936;2023-06-14T02:10:44;100594.75;;;20.46;100.00
9764;BME280;4921;43.214;27.936;2023-06-14T02:13:11;100605.44;;;20.46;100.00
9764;BME280;4921;43.214;27.936;2023-06-14T02:15:39;100604.22;;;20.49;100.00
9764;BME280;4921;43.214;27.936;2023-06-14T02:18:09;100614.16;;;20.40;100.00
9764;BME280;4921;43.214;27.936;2023-06-14T02:20:36;100609.88;;;20.39;100.00
9764;BME280;4921;43.214;27.936;2023-06-14T02:23:03;100606.72;;;20.36;100.00
9764;BME280;4921;43.214;27.936;2023-06-14T02:25:31;100600.72;;;20.34;100.00
9764;BME280;4921;43.214;27.936;2023-06-14T02:27:58;100607.53;;;20.36;100.00
9764;BME280;4921;43.214;27.936;2023-06-14T02:30:25;100611.59;;;20.32;100.00
9764;BME280;4921;43.214;27.936;2023-06-14T02:32:53;100613.44;;;20.32;100.00
9764;BME280;4921;43.214;27.936;2023-06-14T02:35:20;100620.81;;;20.30;100.00
9764;BME280;4921;43.214;27.936;2023-06-14T02:37:50;100630.84;;;20.28;100.00
9764;BME280;4921;43.214;27.936;2023-06-14T02:40:18;100637.03;;;20.28;100.00
9764;BME280;4921;43.214;27.936;2023-06-14T02:42:45;100627.91;;;20.23;100.00
9764;BME280;4921;43.214;27.936;2023-06-14T02:45:12;100631.88;;;20.27;100.00
9764;BME280;4921;43.214;27.936;2023-06-14T02:47:39;100623.78;;;20.20;100.00
9764;BME280;4921;43.214;27.936;2023-06-14T02:50:08;100624.41;;;20.22;100.00
9764;BME280;4921;43.214;27.936;2023-06-14T02:52:35;100631.47;;;20.15;100.00
9764;BME280;4921;43.214;27.936;2023-06-14T02:55:02;100632.00;;;20.11;100.00
9764;BME280;4921;43.214;27.936;2023-06-14T02:57:29;100639.69;;;20.14;100.00
9764;BME280;4921;43.214;27.936;2023-06-14T02:59:56;100631.91;;;20.19;100.00
9764;BME280;4921;43.214;27.936;2023-06-14T03:02:23;100632.94;;;20.18;100.00
9764;BME280;4921;43.214;27.936;2023-06-14T03:04:50;100639.69;;;20.14;100.00
9764;BME280;4921;43.214;27.936;2023-06-14T03:07:18;100636.72;;;20.09;100.00
9764;BME280;4921;43.214;27.936;2023-06-14T03:09:46;100635.03;;;20.08;100.00
9764;BME280;4921;43.214;27.936;2023-06-14T03:12:14;100636.59;;;20.02;100.00
9764;BME280;4921;43.214;27.936;2023-06-14T03:14:43;100631.38;;;20.09;100.00
9764;BME280;4921;43.214;27.936;2023-06-14T03:17:12;100631.03;;;20.12;100.00
9764;BME280;4921;43.214;27.936;2023-06-14T03:19:39;100632.22;;;20.09;100.00
9764;BME280;4921;43.214;27.936;2023-06-14T03:22:06;100640.66;;;20.13;100.00
9764;BME280;4921;43.214;27.936;2023-06-14T03:24:35;100644.38;;;20.12;100.00
9764;BME280;4921;43.214;27.936;2023-06-14T03:27:03;100654.03;;;20.13;100.00
9764;BME280;4921;43.214;27.936;2023-06-14T03:29:30;100654.66;;;20.15;100.00
9764;BME280;4921;43.214;27.936;2023-06-14T03:31:59;100649.53;;;20.13;100.00
9764;BME280;4921;43.214;27.936;2023-06-14T03:34:26;100645.47;;;20.17;100.00
9764;BME280;4921;43.214;27.936;2023-06-14T03:36:53;100653.41;;;20.25;100.00
9764;BME280;4921;43.214;27.936;2023-06-14T03:39:21;100652.22;;;20.28;100.00
9764;BME280;4921;43.214;27.936;2023-06-14T03:41:49;100649.66;;;20.34;100.00
9764;BME280;4921;43.214;27.936;2023-06-14T03:44:17;100647.72;;;20.43;100.00
9764;BME280;4921;43.214;27.936;2023-06-14T03:46:44;100646.72;;;20.44;100.00
9764;BME280;4921;43.214;27.936;2023-06-14T03:49:11;100645.03;;;20.43;100.00
9764;BME280;4921;43.214;27.936;2023-06-14T03:51:38;100646.59;;;20.52;100.00
9764;BME280;4921;43.214;27.936;2023-06-14T03:54:06;100646.69;;;20.59;100.00
9764;BME280;4921;43.214;27.936;2023-06-14T03:56:34;100650.44;;;20.64;100.00
9764;BME280;4921;43.214;27.936;2023-06-14T03:59:02;100641.03;;;20.68;100.00
9764;BME280;4921;43.214;27.936;2023-06-14T04:01:29;100643.63;;;20.76;100.00
9764;BME280;4921;43.214;27.936;2023-06-14T04:03:57;100644.34;;;20.85;100.00
9764;BME280;4921;43.214;27.936;2023-06-14T04:06:24;100646.28;;;20.91;100.00
9764;BME280;4921;43.214;27.936;2023-06-14T04:08:57;100649.38;;;20.94;100.00
9764;BME280;4921;43.214;27.936;2023-06-14T04:11:29;100651.34;;;21.00;100.00
9764;BME280;4921;43.214;27.936;2023-06-14T04:13:57;100644.59;;;20.90;100.00
9764;BME280;4921;43.214;27.936;2023-06-14T04:16:26;100655.47;;;21.03;100.00
9764;BME280;4921;43.214;27.936;2023-06-14T04:18:54;100658.06;;;21.11;100.00
9764;BME280;4921;43.214;27.936;2023-06-14T04:21:23;100665.53;;;21.15;100.00
9764;BME280;4921;43.214;27.936;2023-06-14T04:23:51;100661.44;;;21.19;100.00
9764;BME280;4921;43.214;27.936;2023-06-14T04:26:21;100649.00;;;21.12;100.00
9764;BME280;4921;43.214;27.936;2023-06-14T04:28:49;100662.72;;;21.23;100.00
9764;BME280;4921;43.214;27.936;2023-06-14T04:31:16;100661.97;;;21.30;100.00
9764;BME280;4921;43.214;27.936;2023-06-14T04:33:45;100665.72;;;21.35;100.00
9764;BME280;4921;43.214;27.936;2023-06-14T04:36:13;100674.00;;;21.40;100.00
9764;BME280;4921;43.214;27.936;2023-06-14T04:38:43;100677.50;;;21.41;100.00
9764;BME280;4921;43.214;27.936;2023-06-14T04:41:11;100676.94;;;21.45;100.00
9764;BME280;4921;43.214;27.936;2023-06-14T04:43:39;100682.53;;;21.50;100.00
9764;BME280;4921;43.214;27.936;2023-06-14T04:46:06;100686.88;;;21.51;100.00
9764;BME280;4921;43.214;27.936;2023-06-14T04:48:36;100688.59;;;21.59;100.00
9764;BME280;4921;43.214;27.936;2023-06-14T04:51:06;100694.00;;;21.65;100.00
9764;BME280;4921;43.214;27.936;2023-06-14T04:53:34;100694.47;;;21.69;100.00
9764;BME280;4921;43.214;27.936;2023-06-14T04:56:01;100698.41;;;21.73;100.00
9764;BME280;4921;43.214;27.936;2023-06-14T04:58:28;100705.03;;;21.77;100.00
9764;BME280;4921;43.214;27.936;2023-06-14T05:00:56;100707.13;;;21.81;100.00
9764;BME280;4921;43.214;27.936;2023-06-14T05:03:24;100699.56;;;21.85;100.00
9764;BME280;4921;43.214;27.936;2023-06-14T05:05:52;100700.84;;;21.89;100.00
9764;BME280;4921;43.214;27.936;2023-06-14T05:08:20;100698.00;;;21.90;100.00
9764;BME280;4921;43.214;27.936;2023-06-14T05:10:49;100703.56;;;21.95;100.00
9764;BME280;4921;43.214;27.936;2023-06-14T05:13:16;100709.19;;;22.00;100.00
9764;BME280;4921;43.214;27.936;2023-06-14T05:15:44;100704.09;;;22.06;100.00
9764;BME280;4921;43.214;27.936;2023-06-14T05:18:12;100709.50;;;22.12;100.00
9764;BME280;4921;43.214;27.936;2023-06-14T05:20:41;100703.94;;;22.14;100.00
9764;BME280;4921;43.214;27.936;2023-06-14T05:23:08;100714.06;;;22.18;100.00
9764;BME280;4921;43.214;27.936;2023-06-14T05:25:43;100714.72;;;22.20;100.00
9764;BME280;4921;43.214;27.936;2023-06-14T05:28:10;100708.56;;;22.26;100.00
9764;BME280;4921;43.214;27.936;2023-06-14T05:30:38;100685.44;;;22.19;100.00
9764;BME280;4921;43.214;27.936;2023-06-14T05:33:05;100714.84;;;22.40;100.00
9764;BME280;4921;43.214;27.936;2023-06-14T05:35:33;100711.34;;;22.39;100.00
9764;BME280;4921;43.214;27.936;2023-06-14T05:38:00;100718.84;;;22.50;100.00
9764;BME280;4921;43.214;27.936;2023-06-14T05:40:27;100725.44;;;22.54;100.00
9764;BME280;4921;43.214;27.936;2023-06-14T05:42:55;100732.72;;;22.60;100.00
9764;BME280;4921;43.214;27.936;2023-06-14T05:45:22;100721.84;;;22.62;100.00
9764;BME280;4921;43.214;27.936;2023-06-14T05:47:49;100733.22;;;22.70;100.00
9764;BME280;4921;43.214;27.936;2023-06-14T05:50:17;100734.47;;;22.74;100.00
9764;BME280;4921;43.214;27.936;2023-06-14T05:52:43;100727.91;;;22.77;100.00
9764;BME280;4921;43.214;27.936;2023-06-14T05:55:10;100740.72;;;22.82;100.00
9764;BME280;4921;43.214;27.936;2023-06-14T05:57:38;100735.56;;;22.87;100.00
9764;BME280;4921;43.214;27.936;2023-06-14T06:00:08;100735.78;;;22.85;100.00
9764;BME280;4921;43.214;27.936;2023-06-14T06:02:40;100743.41;;;22.88;100.00
9764;BME280;4921;43.214;27.936;2023-06-14T06:05:08;100736.19;;;22.89;100.00
9764;BME280;4921;43.214;27.936;2023-06-14T06:07:35;100747.56;;;22.91;100.00
9764;BME280;4921;43.214;27.936;2023-06-14T06:10:03;100744.28;;;22.95;100.00
9764;BME280;4921;43.214;27.936;2023-06-14T06:12:30;100742.03;;;22.99;100.00
9764;BME280;4921;43.214;27.936;2023-06-14T06:14:58;100741.25;;;23.05;100.00
9764;BME280;4921;43.214;27.936;2023-06-14T06:17:26;100731.31;;;22.99;100.00
9764;BME280;4921;43.214;27.936;2023-06-14T06:19:54;100743.53;;;23.14;100.00
9764;BME280;4921;43.214;27.936;2023-06-14T06:22:21;100740.28;;;23.25;100.00
9764;BME280;4921;43.214;27.936;2023-06-14T06:24:48;100741.72;;;23.28;100.00
9764;BME280;4921;43.214;27.936;2023-06-14T06:27:15;100742.97;;;23.25;100.00
9764;BME280;4921;43.214;27.936;2023-06-14T06:29:44;100746.28;;;23.27;100.00
9764;BME280;4921;43.214;27.936;2023-06-14T06:32:11;100737.38;;;23.20;100.00
9764;BME280;4921;43.214;27.936;2023-06-14T06:34:39;100745.09;;;23.36;96.75
9764;BME280;4921;43.214;27.936;2023-06-14T06:37:06;100741.13;;;23.32;97.27
9764;BME280;4921;43.214;27.936;2023-06-14T06:39:34;100743.63;;;23.34;98.76
9764;BME280;4921;43.214;27.936;2023-06-14T06:42:01;100744.09;;;23.37;97.19
9764;BME280;4921;43.214;27.936;2023-06-14T06:44:28;100745.94;;;23.37;95.98
9764;BME280;4921;43.214;27.936;2023-06-14T06:46:55;100747.56;;;23.38;92.96
9764;BME280;4921;43.214;27.936;2023-06-14T06:49:22;100742.03;;;23.39;90.66
9764;BME280;4921;43.214;27.936;2023-06-14T06:52:12;100753.41;;;23.48;93.53
9764;BME280;4921;43.214;27.936;2023-06-14T06:54:39;100748.69;;;23.57;87.20
9764;BME280;4921;43.214;27.936;2023-06-14T06:57:06;100751.56;;;23.68;82.83
9764;BME280;4921;43.214;27.936;2023-06-14T06:59:34;100754.47;;;23.60;83.23
9764;BME280;4921;43.214;27.936;2023-06-14T07:02:01;100742.72;;;23.68;84.74
9764;BME280;4921;43.214;27.936;2023-06-14T07:04:29;100745.41;;;23.74;82.72
9764;BME280;4921;43.214;27.936;2023-06-14T07:06:56;100738.00;;;23.89;79.97
9764;BME280;4921;43.214;27.936;2023-06-14T07:09:25;100740.03;;;23.94;80.24
9764;BME280;4921;43.214;27.936;2023-06-14T07:11:52;100738.66;;;24.04;78.50
9764;BME280;4921;43.214;27.936;2023-06-14T07:14:19;100745.00;;;24.03;83.26
9764;BME280;4921;43.214;27.936;2023-06-14T07:16:48;100740.06;;;24.07;82.98
9764;BME280;4921;43.214;27.936;2023-06-14T07:19:15;100738.63;;;24.17;79.33
9764;BME280;4921;43.214;27.936;2023-06-14T07:21:43;100739.28;;;24.19;77.06
9764;BME280;4921;43.214;27.936;2023-06-14T07:24:10;100745.44;;;24.27;74.61
9764;BME280;4921;43.214;27.936;2023-06-14T07:26:38;100745.66;;;24.32;77.97
9764;BME280;4921;43.214;27.936;2023-06-14T07:29:05;100736.13;;;24.36;76.15
9764;BME280;4921;43.214;27.936;2023-06-14T07:31:32;100749.19;;;24.39;72.49
9764;BME280;4921;43.214;27.936;2023-06-14T07:33:59;100745.25;;;24.41;72.01
9764;BME280;4921;43.214;27.936;2023-06-14T07:36:26;100744.59;;;24.46;70.87
9764;BME280;4921;43.214;27.936;2023-06-14T07:38:53;100740.06;;;24.53;69.46
9764;BME280;4921;43.214;27.936;2023-06-14T07:41:20;100734.03;;;24.57;71.53
9764;BME280;4921;43.214;27.936;2023-06-14T07:43:49;100739.19;;;24.65;68.72
9764;BME280;4921;43.214;27.936;2023-06-14T07:46:16;100736.47;;;24.72;69.59
9764;BME280;4921;43.214;27.936;2023-06-14T07:48:43;100735.47;;;24.73;71.37
9764;BME280;4921;43.214;27.936;2023-06-14T07:51:10;100735.88;;;24.70;72.21
9764;BME280;4921;43.214;27.936;2023-06-14T07:53:37;100738.56;;;24.70;72.26
9764;BME280;4921;43.214;27.936;2023-06-14T07:56:06;100739.00;;;24.73;69.09
9764;BME280;4921;43.214;27.936;2023-06-14T07:58:33;100748.50;;;24.76;68.33
9764;BME280;4921;43.214;27.936;2023-06-14T08:01:02;100747.06;;;24.80;70.14
9764;BME280;4921;43.214;27.936;2023-06-14T08:03:32;100748.50;;;24.82;70.58
9764;BME280;4921;43.214;27.936;2023-06-14T08:05:59;100731.72;;;24.80;70.38
9764;BME280;4921;43.214;27.936;2023-06-14T08:08:28;100753.84;;;24.95;67.26
9764;BME280;4921;43.214;27.936;2023-06-14T08:10:58;100752.81;;;24.96;67.70
9764;BME280;4921;43.214;27.936;2023-06-14T08:13:25;100751.56;;;24.99;66.80
9764;BME280;4921;43.214;27.936;2023-06-14T08:15:52;100753.81;;;25.02;68.47
9764;BME280;4921;43.214;27.936;2023-06-14T08:18:20;100754.84;;;25.08;68.89
9764;BME280;4921;43.214;27.936;2023-06-14T08:20:47;100753.19;;;25.07;68.93
9764;BME280;4921;43.214;27.936;2023-06-14T08:23:15;100748.00;;;25.05;67.52
9764;BME280;4921;43.214;27.936;2023-06-14T08:25:44;100752.13;;;25.14;65.80
9764;BME280;4921;43.214;27.936;2023-06-14T08:28:11;100749.25;;;25.09;66.38
9764;BME280;4921;43.214;27.936;2023-06-14T08:30:38;100755.66;;;25.08;66.59
9764;BME280;4921;43.214;27.936;2023-06-14T08:33:05;100753.41;;;24.98;73.75
9764;BME280;4921;43.214;27.936;2023-06-14T08:35:34;100755.03;;;25.06;76.62
9764;BME280;4921;43.214;27.936;2023-06-14T08:38:02;100759.63;;;25.06;77.58
9764;BME280;4921;43.214;27.936;2023-06-14T08:40:30;100763.34;;;25.05;79.12
9764;BME280;4921;43.214;27.936;2023-06-14T08:42:57;100756.72;;;25.01;82.05
9764;BME280;4921;43.214;27.936;2023-06-14T08:45:24;100761.84;;;25.15;84.30
9764;BME280;4921;43.214;27.936;2023-06-14T08:47:52;100769.19;;;24.95;84.39
9764;BME280;4921;43.214;27.936;2023-06-14T08:50:23;100757.44;;;24.44;91.83
9764;BME280;4921;43.214;27.936;2023-06-14T08:52:55;100758.84;;;24.79;89.48
9764;BME280;4921;43.214;27.936;2023-06-14T08:55:23;100750.56;;;24.87;85.78
9764;BME280;4921;43.214;27.936;2023-06-14T08:57:54;100752.06;;;24.37;91.36
9764;BME280;4921;43.214;27.936;2023-06-14T09:00:23;100751.03;;;24.18;97.99
9764;BME280;4921;43.214;27.936;2023-06-14T09:02:51;100745.66;;;24.05;96.59
9764;BME280;4921;43.214;27.936;2023-06-14T09:05:22;100749.81;;;24.14;99.77
9764;BME280;4921;43.214;27.936;2023-06-14T09:07:49;100757.00;;;23.94;100.00
9764;BME280;4921;43.214;27.936;2023-06-14T09:10:18;100741.72;;;24.01;100.00
9764;BME280;4921;43.214;27.936;2023-06-14T09:12:45;100737.78;;;23.97;100.00
9764;BME280;4921;43.214;27.936;2023-06-14T09:15:13;100736.13;;;23.96;100.00
9764;BME280;4921;43.214;27.936;2023-06-14T09:17:40;100738.00;;;23.89;100.00
9764;BME280;4921;43.214;27.936;2023-06-14T09:20:09;100735.25;;;23.63;100.00
9764;BME280;4921;43.214;27.936;2023-06-14T09:22:37;100738.00;;;23.96;100.00
9764;BME280;4921;43.214;27.936;2023-06-14T09:25:05;100731.59;;;24.23;100.00
9764;BME280;4921;43.214;27.936;2023-06-14T09:27:34;100728.91;;;24.30;100.00
9764;BME280;4921;43.214;27.936;2023-06-14T09:30:02;100736.38;;;24.14;100.00
9764;BME280;4921;43.214;27.936;2023-06-14T09:32:29;100726.84;;;24.12;100.00
9764;BME280;4921;43.214;27.936;2023-06-14T09:34:56;100727.66;;;23.86;100.00
9764;BME280;4921;43.214;27.936;2023-06-14T09:37:28;100730.53;;;23.72;100.00
9764;BME280;4921;43.214;27.936;2023-06-14T09:39:56;100728.88;;;23.90;100.00
9764;BME280;4921;43.214;27.936;2023-06-14T09:42:23;100728.09;;;24.16;100.00
9764;BME280;4921;43.214;27.936;2023-06-14T09:44:54;100737.81;;;24.30;100.00
9764;BME280;4921;43.214;27.936;2023-06-14T09:47:21;100730.97;;;24.54;100.00
9764;BME280;4921;43.214;27.936;2023-06-14T09:49:49;100724.09;;;24.84;98.34
9764;BME280;4921;43.214;27.936;2023-06-14T09:52:18;100711.31;;;25.11;94.88
9764;BME280;4921;43.214;27.936;2023-06-14T09:54:47;100711.06;;;25.25;95.31
9764;BME280;4921;43.214;27.936;2023-06-14T09:57:15;100720.25;;;25.05;96.29
9764;BME280;4921;43.214;27.936;2023-06-14T09:59:44;100724.50;;;25.32;97.90
9764;BME280;4921;43.214;27.936;2023-06-14T10:02:24;100723.72;;;25.62;96.83
9764;BME280;4921;43.214;27.936;2023-06-14T10:04:56;100719.63;;;25.85;91.83
9764;BME280;4921;43.214;27.936;2023-06-14T10:07:27;100733.94;;;25.85;82.56
9764;BME280;4921;43.214;27.936;2023-06-14T10:09:57;100724.06;;;25.35;86.69
9764;BME280;4921;43.214;27.936;2023-06-14T10:12:25;100733.13;;;24.96;89.52
9764;BME280;4921;43.214;27.936;2023-06-14T10:14:55;100724.44;;;24.94;94.13
9764;BME280;4921;43.214;27.936;2023-06-14T10:17:34;100719.84;;;25.08;96.57
9764;BME280;4921;43.214;27.936;2023-06-14T10:20:14;100721.97;;;25.43;93.84
9764;BME280;4921;43.214;27.936;2023-06-14T10:22:49;100727.75;;;25.78;88.57
9764;BME280;4921;43.214;27.936;2023-06-14T10:25:26;100724.63;;;26.06;84.87
9764;BME280;4921;43.214;27.936;2023-06-14T10:28:02;100722.66;;;25.95;81.77
9764;BME280;4921;43.214;27.936;2023-06-14T10:30:30;100726.16;;;25.70;83.71
9764;BME280;4921;43.214;27.936;2023-06-14T10:33:05;100729.78;;;25.51;85.59
9764;BME280;4921;43.214;27.936;2023-06-14T10:35:33;100736.75;;;25.65;84.80
9764;BME280;4921;43.214;27.936;2023-06-14T10:38:08;100735.38;;;25.06;81.38
9764;BME280;4921;43.214;27.936;2023-06-14T10:40:36;100738.50;;;25.03;86.54
9764;BME280;4921;43.214;27.936;2023-06-14T10:43:20;100747.78;;;25.13;86.32
9764;BME280;4921;43.214;27.936;2023-06-14T10:46:16;100742.91;;;25.35;85.48
9764;BME280;4921;43.214;27.936;2023-06-14T10:48:44;100740.41;;;25.46;86.78
9764;BME280;4921;43.214;27.936;2023-06-14T10:51:18;100735.63;;;25.48;86.99
9764;BME280;4921;43.214;27.936;2023-06-14T10:53:47;100736.00;;;25.52;86.75
9764;BME280;4921;43.214;27.936;2023-06-14T10:56:27;100741.84;;;25.49;89.11
9764;BME280;4921;43.214;27.936;2023-06-14T10:58:55;100746.88;;;25.26;95.82
9764;BME280;4921;43.214;27.936;2023-06-14T11:01:36;100753.00;;;25.02;92.54
9764;BME280;4921;43.214;27.936;2023-06-14T11:04:09;100752.63;;;24.85;96.37
9764;BME280;4921;43.214;27.936;2023-06-14T11:06:47;100755.44;;;25.16;97.08
9764;BME280;4921;43.214;27.936;2023-06-14T11:09:43;100753.72;;;25.22;97.63
9764;BME280;4921;43.214;27.936;2023-06-14T11:12:18;100754.63;;;25.09;92.82
9764;BME280;4921;43.214;27.936;2023-06-14T11:14:46;100750.50;;;25.00;97.14
9764;BME280;4921;43.214;27.936;2023-06-14T11:17:13;100745.38;;;24.85;99.48
9764;BME280;4921;43.214;27.936;2023-06-14T11:19:42;100748.94;;;24.79;100.00
9764;BME280;4921;43.214;27.936;2023-06-14T11:22:08;100736.94;;;24.82;99.78
9764;BME280;4921;43.214;27.936;2023-06-14T11:24:35;100747.25;;;24.85;96.01
9764;BME280;4921;43.214;27.936;2023-06-14T11:27:03;100753.47;;;24.79;97.74
9764;BME280;4921;43.214;27.936;2023-06-14T11:29:34;100758.44;;;24.82;99.60
9764;BME280;4921;43.214;27.936;2023-06-14T11:32:01;100753.06;;;24.82;100.00
9764;BME280;4921;43.214;27.936;2023-06-14T11:34:28;100752.06;;;24.44;100.00
9764;BME280;4921;43.214;27.936;2023-06-14T11:36:57;100756.81;;;24.29;100.00
9764;BME280;4921;43.214;27.936;2023-06-14T11:39:24;100759.72;;;24.53;100.00
9764;BME280;4921;43.214;27.936;2023-06-14T11:41:52;100752.47;;;24.47;100.00
9764;BME280;4921;43.214;27.936;2023-06-14T11:44:20;100759.50;;;24.48;100.00
9764;BME280;4921;43.214;27.936;2023-06-14T11:46:48;100759.31;;;24.43;100.00
9764;BME280;4921;43.214;27.936;2023-06-14T11:49:16;100765.72;;;24.42;100.00
9764;BME280;4921;43.214;27.936;2023-06-14T11:51:43;100754.75;;;24.31;100.00
9764;BME280;4921;43.214;27.936;2023-06-14T11:54:11;100761.16;;;24.49;100.00
9764;BME280;4921;43.214;27.936;2023-06-14T11:56:39;100758.47;;;24.62;100.00
9764;BME280;4921;43.214;27.936;2023-06-14T11:59:06;100762.19;;;24.42;100.00
9764;BME280;4921;43.214;27.936;2023-06-14T12:01:36;100763.66;;;24.18;100.00
9764;BME280;4921;43.214;27.936;2023-06-14T12:04:04;100758.88;;;24.20;100.00
9764;BME280;4921;43.214;27.936;2023-06-14T12:06:31;100758.72;;;24.35;100.00
9764;BME280;4921;43.214;27.936;2023-06-14T12:09:05;100755.16;;;24.47;100.00
9764;BME280;4921;43.214;27.936;2023-06-14T12:11:37;100753.09;;;24.36;100.00
9764;BME280;4921;43.214;27.936;2023-06-14T12:14:05;100750.63;;;24.41;100.00
9764;BME280;4921;43.214;27.936;2023-06-14T12:16:33;100754.94;;;24.49;100.00
9764;BME280;4921;43.214;27.936;2023-06-14T12:19:07;100751.66;;;24.34;100.00
9764;BME280;4921;43.214;27.936;2023-06-14T12:21:37;100759.69;;;24.01;100.00
9764;BME280;4921;43.214;27.936;2023-06-14T12:24:06;100757.41;;;23.78;100.00
9764;BME280;4921;43.214;27.936;2023-06-14T12:26:33;100758.84;;;23.74;100.00
9764;BME280;4921;43.214;27.936;2023-06-14T12:29:06;100760.22;;;23.57;100.00
9764;BME280;4921;43.214;27.936;2023-06-14T12:31:34;100759.56;;;23.35;100.00
9764;BME280;4921;43.214;27.936;2023-06-14T12:34:01;100751.31;;;23.43;100.00
9764;BME280;4921;43.214;27.936;2023-06-14T12:36:28;100749.88;;;23.41;100.00
9764;BME280;4921;43.214;27.936;2023-06-14T12:38:55;100746.97;;;23.42;100.00
9764;BME280;4921;43.214;27.936;2023-06-14T12:41:22;100749.69;;;23.49;100.00
9764;BME280;4921;43.214;27.936;2023-06-14T12:43:50;100752.41;;;23.62;100.00
9764;BME280;4921;43.214;27.936;2023-06-14T12:46:18;100750.78;;;23.74;100.00
9764;BME280;4921;43.214;27.936;2023-06-14T12:48:46;100743.50;;;23.68;100.00
9764;BME280;4921;43.214;27.936;2023-06-14T12:51:13;100753.22;;;23.63;100.00
9764;BME280;4921;43.214;27.936;2023-06-14T12:53:40;100744.38;;;23.75;100.00
9764;BME280;4921;43.214;27.936;2023-06-14T12:56:07;100749.09;;;23.67;100.00
9764;BME280;4921;43.214;27.936;2023-06-14T12:58:34;100745.59;;;23.73;100.00
9764;BME280;4921;43.214;27.936;2023-06-14T13:01:01;100740.22;;;23.73;100.00